Time;durP1;ratioP1;P1;durP2;ratioP2;P2;SDS_P1;SDS_P2;PMS_P1;PMS_P2;Temp;Humidity;BMP_temperature;BMP_pressure;BME280_temperature;BME280_humidity;BME280_pressure;Samples;Min_cycle;Max_cycle;Signal;HPM_P1;HPM_P2
2023/11/01 00:01:02;;;;;;;2.65;1.35;;;;;;;15.30;nan;99350.47;4952129;28;98080;-76
2023/11/01 00:03:28;;;;;;;3.95;1.25;;;;;;;15.38;nan;99361.38;4935530;28;96517;-79
2023/11/01 00:05:53;;;;;;;2.42;1.00;;;;;;;15.39;nan;99366.56;4951673;28;97134;-76
2023/11/01 00:08:19;;;;;;;1.83;1.10;;;;;;;15.37;nan;99357.88;4935860;28;98015;-76
2023/11/01 00:10:44;;;;;;;2.63;1.30;;;;;;;15.31;nan;99362.75;4952878;28;97510;-77
2023/11/01 00:13:10;;;;;;;4.10;1.40;;;;;;;15.38;nan;99380.72;4951886;28;96568;-79
2023/11/01 00:15:35;;;;;;;2.50;1.02;;;;;;;15.39;nan;99369.22;4935417;28;96883;-76
2023/11/01 00:18:01;;;;;;;2.88;0.98;;;;;;;15.40;nan;99376.19;4935334;28;101781;-76
2023/11/01 00:20:26;;;;;;;2.30;1.13;;;;;;;15.40;nan;99384.13;4936247;28;97459;-78
2023/11/01 00:22:52;;;;;;;1.80;0.93;;;;;;;15.37;nan;99372.91;4935269;28;96710;-76
2023/11/01 00:25:17;;;;;;;2.40;1.10;;;;;;;15.39;nan;99377.16;4935263;28;96825;-76
2023/11/01 00:27:43;;;;;;;7.10;0.93;;;;;;;15.36;nan;99384.47;4934673;28;101054;-75
2023/11/01 00:30:09;;;;;;;2.42;0.75;;;;;;;15.34;nan;99375.78;4935288;28;101224;-76
2023/11/01 00:32:34;;;;;;;3.25;1.20;;;;;;;15.38;nan;99386.00;4953048;28;96563;-76
2023/11/01 00:35:00;;;;;;;3.10;1.42;;;;;;;15.19;nan;99355.69;4919306;28;96622;-76
2023/11/01 00:37:25;;;;;;;7.75;1.08;;;;;;;15.31;nan;99389.22;4935071;28;101753;-78
2023/11/01 00:39:51;;;;;;;2.75;1.10;;;;;;;15.31;nan;99389.22;4935307;28;98156;-76
2023/11/01 00:42:17;;;;;;;1.55;0.95;;;;;;;15.06;nan;99350.38;4918839;28;96901;-76
2023/11/01 00:44:43;;;;;;;5.95;0.95;;;;;;;15.07;nan;99354.72;4935017;28;96830;-75
2023/11/01 00:47:09;;;;;;;5.32;1.38;;;;;;;15.31;nan;99392.69;4951252;28;97783;-77
2023/11/01 00:49:34;;;;;;;2.75;1.08;;;;;;;15.33;nan;99403.16;4951468;28;98434;-76
2023/11/01 00:52:00;;;;;;;2.40;1.00;;;;;;;15.34;nan;99397.75;4934821;28;96639;-76
2023/11/01 00:54:40;;;;;;;9.68;1.52;;;;;;;15.16;55.64;99375.22;5099775;27;97685;-76
2023/11/01 00:57:06;;;;;;;5.03;1.17;;;;;;;15.29;55.75;99399.88;5070656;27;96912;-85
2023/11/01 00:59:31;;;;;;;3.42;1.30;;;;;;;15.22;55.55;99390.69;5084286;27;97325;-77
2023/11/01 01:01:57;;;;;;;0.75;0.75;;;;;;;15.31;55.49;99402.44;5069505;27;98174;-78
2023/11/01 01:04:22;;;;;;;7.55;1.15;;;;;;;15.26;55.69;99400.06;5066919;27;96725;-76
2023/11/01 01:06:48;;;;;;;1.95;1.02;;;;;;;15.04;55.67;99360.19;5068573;27;96833;-75
2023/11/01 01:09:13;;;;;;;2.90;0.90;;;;;;;15.32;55.55;99409.41;5072963;27;98070;-74
2023/11/01 01:11:39;;;;;;;2.67;0.90;;;;;;;15.24;55.73;99393.19;5081633;27;97884;-75
2023/11/01 01:14:05;;;;;;;4.43;0.90;;;;;;;15.10;55.82;99368.56;5071830;27;97288;-75
2023/11/01 01:16:30;;;;;;;1.42;0.90;;;;;;;15.24;56.08;99393.19;5068723;27;97073;-75
2023/11/01 01:18:56;;;;;;;2.63;1.10;;;;;;;15.23;55.57;99397.66;5081869;27;100963;-78
2023/11/01 01:21:21;;;;;;;1.50;0.60;;;;;;;15.23;55.93;99399.44;5062287;27;101374;-75
2023/11/01 01:23:47;;;;;;;3.35;1.00;;;;;;;15.20;55.65;99389.09;5067018;27;96841;-77
2023/11/01 01:26:13;;;;;;;3.42;1.13;;;;;;;15.19;55.87;99398.81;5044782;27;97141;-75
2023/11/01 01:28:38;;;;;;;2.30;1.08;;;;;;;15.23;56.03;99402.09;5092325;27;98603;-75
2023/11/01 01:31:04;;;;;;;3.63;1.33;;;;;;;15.14;55.86;99399.13;5063212;27;101205;-75
2023/11/01 01:33:29;;;;;;;3.75;1.02;;;;;;;15.21;56.08;99407.47;5082260;27;97120;-78
2023/11/01 01:35:55;;;;;;;1.60;0.80;;;;;;;15.12;56.06;99401.00;5071746;27;96952;-75
2023/11/01 01:38:21;;;;;;;1.90;0.90;;;;;;;15.18;55.94;99405.03;5056778;27;100672;-75
2023/11/01 01:40:46;;;;;;;2.85;1.20;;;;;;;14.98;56.00;99377.31;5091891;27;98034;-76
2023/11/01 01:43:20;;;;;;;2.03;1.23;;;;;;;15.06;56.32;99387.38;5091231;27;97268;-75
2023/11/01 01:45:51;;;;;;;2.70;1.02;;;;;;;15.13;56.15;99405.34;5084263;27;96827;-76
2023/11/01 01:48:16;;;;;;;4.63;0.90;;;;;;;14.97;56.31;99386.19;5063239;27;101662;-75
2023/11/01 01:50:42;;;;;;;2.22;0.90;;;;;;;15.10;56.23;99405.56;5071386;27;98315;-75
2023/11/01 01:53:07;;;;;;;1.70;0.88;;;;;;;14.89;56.32;99370.88;5070921;27;96927;-78
2023/11/01 01:55:33;;;;;;;14.15;2.03;;;;;;;14.98;56.15;99389.66;5066662;27;97113;-78
2023/11/01 01:57:59;;;;;;;1.10;0.85;;;;;;;15.08;56.13;99411.91;5065219;27;101581;-75
2023/11/01 02:00:28;;;;;;;1.50;0.70;;;;;;;15.05;56.49;99410.31;5057199;27;101582;-75
2023/11/01 02:02:54;;;;;;;1.48;0.88;;;;;;;15.05;56.30;99412.94;5058014;27;96740;-76
2023/11/01 02:05:20;;;;;;;2.90;0.80;;;;;;;15.08;56.38;99415.38;5076011;27;97086;-75
2023/11/01 02:07:47;;;;;;;10.75;1.45;;;;;;;15.07;56.37;99418.16;5059223;27;97738;-75
2023/11/01 02:10:14;;;;;;;2.90;1.20;;;;;;;15.04;56.22;99410.41;5056439;27;101283;-75
2023/11/01 02:12:40;;;;;;;2.08;0.90;;;;;;;14.94;56.30;99384.59;5057452;27;96844;-76
2023/11/01 02:15:07;;;;;;;1.20;0.90;;;;;;;15.04;56.11;99410.41;5071920;27;96806;-76
2023/11/01 02:17:33;;;;;;;0.88;0.55;;;;;;;15.12;56.23;99416.88;5055714;27;101385;-75
2023/11/01 02:20:02;;;;;;;3.25;1.23;;;;;;;15.10;55.94;99413.50;5061648;27;97970;-76
2023/11/01 02:22:28;;;;;;;2.42;1.40;;;;;;;14.92;55.98;99390.91;5047678;27;97164;-75
2023/11/01 02:24:55;;;;;;;1.30;1.00;;;;;;;15.07;55.95;99421.63;5041195;27;97147;-76
2023/11/01 02:27:20;;;;;;;2.55;1.17;;;;;;;14.98;56.03;99402.88;5052413;27;101469;-75
2023/11/01 02:29:47;;;;;;;5.40;1.23;;;;;;;15.08;55.87;99427.75;5061239;27;101115;-75
2023/11/01 02:32:13;;;;;;;1.77;1.23;;;;;;;14.97;55.97;99407.31;5077197;27;97190;-75
2023/11/01 02:34:39;;;;;;;4.25;1.05;;;;;;;15.04;56.07;99421.84;5032087;27;97466;-75
2023/11/01 02:37:04;;;;;;;7.07;1.83;;;;;;;14.96;56.20;99423.31;5033594;27;101912;-75
2023/11/01 02:39:30;;;;;;;3.83;1.20;;;;;;;14.77;56.03;99398.06;5064968;27;97558;-75
2023/11/01 02:41:55;;;;;;;1.58;0.85;;;;;;;14.97;55.96;99424.97;5069747;27;96783;-75
2023/11/01 02:44:21;;;;;;;10.10;1.40;;;;;;;14.93;56.01;99429.63;5048815;27;97474;-75
2023/11/01 02:46:46;;;;;;;2.20;1.08;;;;;;;14.92;56.14;99420.00;5053786;27;99240;-75
2023/11/01 02:49:12;;;;;;;2.67;0.95;;;;;;;14.98;56.36;99430.19;5065560;27;98360;-75
2023/11/01 02:51:37;;;;;;;1.65;1.08;;;;;;;14.94;56.27;99434.78;5053460;27;96795;-75
2023/11/01 02:54:03;;;;;;;2.60;1.20;;;;;;;14.95;56.30;99425.06;5070612;27;97444;-75
2023/11/01 02:56:29;;;;;;;3.08;1.17;;;;;;;14.89;56.62;99425.47;5070828;27;98075;-75
2023/11/01 02:58:55;;;;;;;3.90;1.15;;;;;;;14.90;56.48;99427.19;5064702;27;97651;-76
2023/11/01 03:01:21;;;;;;;3.33;1.33;;;;;;;14.90;56.31;99440.41;5078011;27;96727;-76
2023/11/01 03:03:48;;;;;;;6.75;1.13;;;;;;;14.73;56.65;99415.09;5078243;27;97018;-75
2023/11/01 03:06:14;;;;;;;5.93;1.17;;;;;;;14.88;56.52;99442.28;5060276;27;101419;-75
2023/11/01 03:08:40;;;;;;;4.18;1.10;;;;;;;14.90;56.22;99440.41;5063695;27;99760;-77
2023/11/01 03:11:05;;;;;;;2.25;1.20;;;;;;;14.64;56.29;99403.31;5060964;27;97184;-75
2023/11/01 03:13:31;;;;;;;2.95;1.40;;;;;;;14.62;56.39;99407.00;5051837;27;96740;-75
2023/11/01 03:15:56;;;;;;;4.38;1.65;;;;;;;14.80;56.34;99428.72;5058446;27;101657;-76
2023/11/01 03:18:22;;;;;;;2.42;1.30;;;;;;;14.83;56.42;99445.22;5057944;27;101348;-75
2023/11/01 03:20:47;;;;;;;5.03;1.67;;;;;;;14.72;56.52;99447.75;5058330;27;96823;-75
2023/11/01 03:23:13;;;;;;;4.95;1.70;;;;;;;14.71;56.73;99438.94;5052135;27;96863;-76
2023/11/01 03:25:38;;;;;;;5.00;1.83;;;;;;;14.72;56.41;99447.75;5069882;27;97942;-75
2023/11/01 03:28:04;;;;;;;4.10;1.70;;;;;;;14.67;56.44;99447.19;5060314;27;97904;-80
2023/11/01 03:30:29;;;;;;;3.40;1.65;;;;;;;14.60;56.54;99449.38;5065742;27;96906;-75
2023/11/01 03:32:55;;;;;;;5.00;2.25;;;;;;;14.56;56.53;99450.50;5076922;27;97002;-75
2023/11/01 03:35:20;;;;;;;3.42;1.42;;;;;;;14.52;56.84;99454.31;5059817;27;97986;-75
2023/11/01 03:37:46;;;;;;;3.63;1.55;;;;;;;14.29;56.48;99418.78;5075315;27;98421;-75
2023/11/01 03:40:11;;;;;;;2.67;1.63;;;;;;;14.53;56.60;99460.44;5065780;27;96760;-77
2023/11/01 03:42:37;;;;;;;3.60;1.35;;;;;;;14.54;56.56;99472.66;5071052;27;96961;-75
2023/11/01 03:45:04;;;;;;;5.00;1.50;;;;;;;14.49;56.68;99470.31;5040522;27;101219;-75
2023/11/01 03:47:30;;;;;;;2.60;1.60;;;;;;;14.46;56.58;99463.44;5051470;27;101160;-75
2023/11/01 03:49:56;;;;;;;2.13;1.45;;;;;;;14.43;56.78;99466.25;5054683;27;97029;-77
2023/11/01 03:52:21;;;;;;;4.82;1.95;;;;;;;14.41;56.81;99459.38;5061734;27;96990;-75
2023/11/01 03:54:47;;;;;;;4.50;1.25;;;;;;;14.32;56.77;99454.69;5035428;27;101662;-75
2023/11/01 03:57:12;;;;;;;3.95;1.63;;;;;;;14.39;56.45;99464.75;5034743;27;100867;-75
2023/11/01 03:59:38;;;;;;;3.38;1.75;;;;;;;14.34;56.50;99464.22;5052007;27;96887;-75
2023/11/01 04:02:04;;;;;;;1.83;1.30;;;;;;;14.15;56.78;99440.75;5037424;27;97331;-77
2023/11/01 04:04:30;;;;;;;3.92;1.80;;;;;;;14.30;56.64;99461.84;5054525;27;97978;-76
2023/11/01 04:06:56;;;;;;;3.05;1.60;;;;;;;14.31;56.58;99480.25;5067219;27;97880;-75
2023/11/01 04:09:21;;;;;;;7.22;2.88;;;;;;;14.24;56.56;99466.56;5068502;27;96751;-76
2023/11/01 04:11:47;;;;;;;10.13;3.45;;;;;;;14.29;56.46;99473.38;5051416;27;97150;-78
2023/11/01 04:14:14;;;;;;;7.63;2.58;;;;;;;14.21;56.61;99464.13;5055699;27;100840;-77
2023/11/01 04:16:40;;;;;;;5.38;2.00;;;;;;;14.26;56.44;99475.25;5038326;27;101388;-79
2023/11/01 04:19:05;;;;;;;4.45;1.40;;;;;;;14.09;56.64;99474.59;5060757;27;96772;-78
2023/11/01 04:21:31;;;;;;;1.48;1.35;;;;;;;13.93;56.77;99445.66;5054687;27;97090;-75
2023/11/01 04:23:56;;;;;;;2.45;2.00;;;;;;;14.13;56.61;99481.38;5064435;27;97582;-75
2023/11/01 04:26:22;;;;;;;7.72;1.77;;;;;;;14.18;56.80;99488.06;5055667;27;97165;-75
2023/11/01 04:28:48;;;;;;;3.10;1.85;;;;;;;13.89;56.84;99437.09;5052205;27;96744;-75
2023/11/01 04:31:15;;;;;;;4.30;1.95;;;;;;;14.07;56.75;99487.88;5062954;27;96924;-75
2023/11/01 04:33:41;;;;;;;4.88;1.63;;;;;;;14.11;57.10;99485.88;5045929;27;101252;-78
2023/11/01 04:36:08;;;;;;;3.22;1.50;;;;;;;14.10;56.86;99495.59;5053503;27;101214;-77
2023/11/01 04:38:36;;;;;;;2.53;1.73;;;;;;;14.02;57.07;99482.03;5032179;27;96771;-77
2023/11/01 04:41:02;;;;;;;6.78;1.73;;;;;;;13.99;57.12;99490.13;5053130;27;96923;-77
2023/11/01 04:43:29;;;;;;;3.75;1.80;;;;;;;13.87;57.34;99485.59;5052603;27;97453;-77
2023/11/01 04:45:55;;;;;;;2.03;1.27;;;;;;;13.82;57.56;99485.91;5052219;27;101378;-78
2023/11/01 04:48:20;;;;;;;1.83;1.20;;;;;;;13.83;57.54;99500.78;5037993;27;96735;-79
2023/11/01 04:50:48;;;;;;;2.63;1.60;;;;;;;13.84;57.60;99506.91;5039911;27;97444;-78
2023/11/01 04:53:15;;;;;;;6.88;1.55;;;;;;;13.91;57.79;99495.06;5027423;27;101047;-78
2023/11/01 04:55:40;;;;;;;4.35;1.88;;;;;;;13.94;57.17;99503.63;5051346;27;97482;-81
2023/11/01 04:58:06;;;;;;;3.70;1.55;;;;;;;13.92;57.25;99497.56;5069574;27;96754;-78
2023/11/01 05:00:31;;;;;;;3.97;1.60;;;;;;;13.81;57.58;99500.84;5029474;27;96849;-78
2023/11/01 05:02:58;;;;;;;4.63;1.75;;;;;;;13.63;57.58;99474.75;5036078;27;101400;-78
2023/11/01 05:05:23;;;;;;;5.97;1.50;;;;;;;13.82;57.29;99493.81;5052252;27;101770;-78
2023/11/01 05:07:49;;;;;;;3.28;1.65;;;;;;;13.77;57.67;99496.72;5066665;27;96799;-78
2023/11/01 05:10:15;;;;;;;5.53;1.45;;;;;;;13.74;57.17;99496.91;5038375;27;96980;-82
2023/11/01 05:12:41;;;;;;;1.88;1.52;;;;;;;13.65;57.09;99489.56;5049551;27;101139;-78
2023/11/01 05:15:08;;;;;;;2.75;1.77;;;;;;;13.53;58.07;99492.94;5069244;27;97355;-80
2023/11/01 05:17:34;;;;;;;2.28;1.30;;;;;;;13.57;58.05;99504.97;5066828;27;97102;-78
2023/11/01 05:20:00;;;;;;;2.65;1.50;;;;;;;13.60;58.04;99510.06;5046638;27;97098;-79
2023/11/01 05:22:25;;;;;;;1.70;1.20;;;;;;;13.44;57.92;99501.34;5057679;27;97282;-78
2023/11/01 05:24:51;;;;;;;2.15;1.33;;;;;;;13.48;58.33;99497.63;5057291;27;97539;-78
2023/11/01 05:27:19;;;;;;;3.35;1.50;;;;;;;13.37;58.22;99506.13;5058751;27;96828;-78
2023/11/01 05:29:45;;;;;;;3.78;1.73;;;;;;;13.46;58.34;99513.50;5057584;27;97369;-77
2023/11/01 05:32:10;;;;;;;3.50;1.83;;;;;;;13.51;58.41;99516.72;5060326;27;98315;-78
2023/11/01 05:34:36;;;;;;;4.68;1.38;;;;;;;13.59;58.29;99516.28;5041264;27;101394;-78
2023/11/01 05:37:03;;;;;;;2.92;1.40;;;;;;;13.47;58.15;99507.31;5051685;27;96708;-78
2023/11/01 05:39:29;;;;;;;2.17;1.20;;;;;;;13.47;58.32;99506.47;5062639;27;96759;-78
2023/11/01 05:41:55;;;;;;;3.00;1.83;;;;;;;13.31;58.27;99491.53;5072274;27;97489;-79
2023/11/01 05:44:20;;;;;;;2.67;1.52;;;;;;;13.36;58.36;99507.09;5054268;27;101047;-80
2023/11/01 05:46:51;;;;;;;2.88;1.63;;;;;;;13.16;58.88;99484.50;5050627;27;97130;-77
2023/11/01 05:49:16;;;;;;;5.78;2.08;;;;;;;13.32;58.85;99518.72;5055387;27;96656;-78
2023/11/01 05:51:42;;;;;;;2.50;1.80;;;;;;;13.31;59.08;99527.59;5030345;27;101151;-78
2023/11/01 05:54:07;;;;;;;5.15;1.70;;;;;;;13.18;58.92;99518.66;5051315;27;100613;-78
2023/11/01 05:56:33;;;;;;;2.97;1.70;;;;;;;13.22;59.10;99520.19;5059475;27;97309;-78
2023/11/01 05:58:58;;;;;;;2.55;1.60;;;;;;;13.20;59.51;99536.06;5036654;27;96949;-78
2023/11/01 06:01:24;;;;;;;1.83;1.30;;;;;;;13.15;59.49;99538.16;5054589;27;97520;-78
2023/11/01 06:03:50;;;;;;;6.45;1.80;;;;;;;13.04;59.75;99511.56;5042188;27;97539;-77
2023/11/01 06:06:16;;;;;;;3.85;2.20;;;;;;;12.85;59.77;99517.84;5055872;27;96744;-78
2023/11/01 06:08:42;;;;;;;6.32;1.98;;;;;;;13.03;60.19;99544.09;5054833;27;96956;-78
2023/11/01 06:11:08;;;;;;;4.32;1.65;;;;;;;13.18;59.78;99553.78;5040710;27;97565;-77
2023/11/01 06:13:34;;;;;;;3.63;1.67;;;;;;;13.22;60.12;99551.81;5060315;27;98069;-78
2023/11/01 06:16:04;;;;;;;2.90;1.67;;;;;;;13.27;59.89;99553.28;5061020;27;97218;-78
2023/11/01 06:18:33;;;;;;;4.38;2.22;;;;;;;13.36;59.60;99558.03;5070691;27;97513;-77
2023/11/01 06:20:59;;;;;;;2.75;1.60;;;;;;;13.07;59.82;99493.78;5039846;27;99219;-78
2023/11/01 06:23:25;;;;;;;5.68;2.33;;;;;;;13.44;60.11;99544.41;5059901;27;97914;-76
2023/11/01 06:25:50;;;;;;;2.85;1.80;;;;;;;13.36;59.63;99550.09;5062118;27;96752;-77
2023/11/01 06:28:26;;;;;;;4.40;1.80;;;;;;;13.48;59.80;99564.38;5050042;27;96809;-77
2023/11/01 06:31:21;;;;;;;2.50;1.40;;;;;;;13.58;59.61;99564.66;5028056;27;97940;-77
2023/11/01 06:34:04;;;;;;;2.70;1.48;;;;;;;13.58;59.74;99556.75;5038717;27;98085;-77
2023/11/01 06:36:45;;;;;;;5.50;1.98;;;;;;;13.04;59.55;99474.66;5049586;27;97170;-76
2023/11/01 06:39:16;;;;;;;4.20;1.83;;;;;;;13.65;59.07;99567.81;5055549;27;97429;-77
2023/11/01 06:42:01;;;;;;;;;;;;;;;13.44;59.22;99568.13;5027390;27;98064;-77
2023/11/01 06:44:40;;;;;;;2.03;1.40;;;;;;;13.42;59.89;99583.19;5051656;27;97443;-76
2023/11/01 06:47:11;;;;;;;3.85;1.85;;;;;;;13.37;60.02;99577.31;5043157;27;96789;-77
2023/11/01 06:49:43;;;;;;;8.18;2.47;;;;;;;13.35;59.74;99577.41;5024500;27;96903;-77
2023/11/01 06:52:08;;;;;;;6.57;1.90;;;;;;;13.38;60.11;99567.63;5061260;27;97426;-77
2023/11/01 06:54:36;;;;;;;3.08;1.50;;;;;;;13.41;59.93;99576.22;5070551;27;100735;-77
2023/11/01 06:57:02;;;;;;;3.03;1.63;;;;;;;13.47;59.92;99577.66;5043764;27;96790;-77
2023/11/01 06:59:28;;;;;;;4.03;1.75;;;;;;;13.29;59.73;99538.25;5058254;27;96741;-77
2023/11/01 07:01:53;;;;;;;4.65;1.30;;;;;;;13.44;60.21;99583.94;5074609;27;97625;-77
2023/11/01 07:04:19;;;;;;;4.50;1.55;;;;;;;13.34;60.47;99554.63;5077345;27;97673;-78
2023/11/01 07:06:44;;;;;;;4.45;2.10;;;;;;;13.55;60.12;99568.34;5071703;27;96965;-77
2023/11/01 07:09:10;;;;;;;4.18;1.67;;;;;;;13.20;60.52;99527.31;5058631;27;96771;-77
2023/11/01 07:11:36;;;;;;;5.45;2.22;;;;;;;13.40;60.57;99565.75;5052782;27;100750;-77
2023/11/01 07:14:04;;;;;;;4.93;1.83;;;;;;;13.25;60.77;99535.81;5033899;27;101528;-77
2023/11/01 07:16:31;;;;;;;3.63;1.83;;;;;;;13.42;60.94;99563.88;5045950;27;97964;-77
2023/11/01 07:18:58;;;;;;;4.10;2.00;;;;;;;13.43;60.24;99555.88;5055073;27;96745;-77
2023/11/01 07:21:26;;;;;;;4.93;1.90;;;;;;;13.45;60.48;99543.47;5050297;27;100852;-77
2023/11/01 07:23:52;;;;;;;1.92;1.55;;;;;;;13.58;60.55;99575.22;5063741;27;98141;-78
2023/11/01 07:26:17;;;;;;;6.30;1.98;;;;;;;13.68;60.53;99572.91;5040551;27;97155;-77
2023/11/01 07:28:44;;;;;;;4.80;1.85;;;;;;;13.71;60.21;99568.31;5077062;27;96757;-77
2023/11/01 07:31:10;;;;;;;3.55;1.83;;;;;;;13.59;60.82;99564.59;5058331;27;101062;-79
2023/11/01 07:33:37;;;;;;;5.13;1.70;;;;;;;13.59;61.04;99559.31;5055795;27;97489;-77
2023/11/01 07:36:03;;;;;;;2.38;1.50;;;;;;;13.54;60.51;99545.56;5058101;27;96906;-77
2023/11/01 07:38:29;;;;;;;2.90;1.60;;;;;;;13.70;60.75;99553.44;5056087;27;97223;-77
2023/11/01 07:40:55;;;;;;;2.53;1.63;;;;;;;13.65;60.61;99573.94;5044470;27;101678;-78
2023/11/01 07:43:20;;;;;;;2.50;1.90;;;;;;;13.81;60.37;99569.44;5038693;27;97877;-77
2023/11/01 07:45:46;;;;;;;4.65;2.85;;;;;;;13.54;61.10;99544.72;5040756;27;97263;-79
2023/11/01 07:48:12;;;;;;;3.30;1.63;;;;;;;13.75;60.65;99572.44;5034917;27;96826;-77
2023/11/01 07:50:40;;;;;;;4.78;1.70;;;;;;;13.73;60.96;99571.72;5035760;27;101422;-77
2023/11/01 07:53:06;;;;;;;2.47;1.77;;;;;;;13.71;60.79;99564.81;5050681;27;100801;-77
2023/11/01 07:55:31;;;;;;;3.95;1.70;;;;;;;13.85;60.67;99571.94;5051567;27;96974;-80
2023/11/01 07:57:57;;;;;;;4.15;1.90;;;;;;;13.70;60.80;99577.16;5067539;27;96962;-79
2023/11/01 08:00:22;;;;;;;5.00;1.98;;;;;;;13.78;60.71;99571.41;5057077;27;97823;-77
2023/11/01 08:02:48;;;;;;;1.88;1.38;;;;;;;13.78;61.27;99569.63;5053346;27;97419;-76
2023/11/01 08:05:13;;;;;;;3.72;1.70;;;;;;;13.87;61.15;99570.88;5056925;27;96700;-77
2023/11/01 08:07:38;;;;;;;7.60;2.10;;;;;;;13.98;60.65;99586.06;5037150;27;97473;-77
2023/11/01 08:10:05;;;;;;;4.10;1.58;;;;;;;14.01;60.75;99583.25;5070108;27;97417;-77
2023/11/01 08:12:30;;;;;;;3.45;1.60;;;;;;;14.13;60.25;99586.94;5054759;27;97330;-77
2023/11/01 08:14:56;;;;;;;2.47;1.52;;;;;;;13.85;60.40;99556.09;5044017;27;96809;-77
2023/11/01 08:17:21;;;;;;;2.35;1.60;;;;;;;13.90;60.30;99554.84;5069383;27;97231;-77
2023/11/01 08:19:47;;;;;;;2.25;1.27;;;;;;;14.20;60.26;99591.75;5064131;27;97336;-77
2023/11/01 08:22:13;;;;;;;1.23;1.13;;;;;;;14.13;59.81;99558.75;5045567;27;101230;-77
2023/11/01 08:24:39;;;;;;;1.80;1.52;;;;;;;14.36;59.45;99564.41;5070315;27;96756;-77
2023/11/01 08:27:05;;;;;;;3.17;1.60;;;;;;;14.61;59.37;99583.13;5063906;27;97216;-77
2023/11/01 08:29:31;;;;;;;3.35;1.40;;;;;;;14.93;58.57;99586.38;5041495;27;97487;-77
2023/11/01 08:31:57;;;;;;;3.33;1.30;;;;;;;15.10;57.88;99581.81;5070234;27;97341;-77
2023/11/01 08:34:23;;;;;;;2.58;1.40;;;;;;;15.27;57.93;99596.56;5060043;27;96971;-77
2023/11/01 08:36:48;;;;;;;2.45;1.50;;;;;;;15.46;57.42;99589.13;5058944;27;96866;-77
2023/11/01 08:39:14;;;;;;;2.65;1.50;;;;;;;15.39;57.13;99564.91;5035165;27;100018;-77
2023/11/01 08:41:39;;;;;;;2.17;1.45;;;;;;;15.67;56.66;99597.44;5063041;27;97398;-78
2023/11/01 08:44:05;;;;;;;1.90;1.52;;;;;;;16.01;55.98;99568.75;5045492;27;97126;-77
2023/11/01 08:46:31;;;;;;;1.73;1.20;;;;;;;16.34;55.14;99597.34;5044096;27;96979;-80
2023/11/01 08:48:57;;;;;;;2.47;1.45;;;;;;;16.19;55.35;99603.69;5043031;27;101245;-82
2023/11/01 08:51:22;;;;;;;4.03;1.50;;;;;;;16.07;55.07;99569.16;5053556;27;97864;-79
2023/11/01 08:53:48;;;;;;;2.70;1.63;;;;;;;16.31;55.03;99589.59;5054052;27;97026;-79
2023/11/01 08:56:14;;;;;;;3.00;1.75;;;;;;;16.17;54.83;99587.91;5063825;27;97640;-79
2023/11/01 08:58:39;;;;;;;5.75;1.40;;;;;;;16.41;54.38;99556.25;5051494;27;98149;-81
2023/11/01 09:01:05;;;;;;;2.55;1.20;;;;;;;19.64;48.66;99583.75;5053837;27;97565;-79
2023/11/01 09:03:30;;;;;;;1.88;1.08;;;;;;;20.62;46.33;99589.72;5061261;27;96841;-77
2023/11/01 09:05:56;;;;;;;2.33;1.60;;;;;;;19.55;47.88;99594.34;5060316;27;97059;-77
2023/11/01 09:08:21;;;;;;;2.05;1.33;;;;;;;18.51;49.81;99566.34;5065995;27;97705;-77
2023/11/01 09:10:47;;;;;;;4.10;1.40;;;;;;;18.08;50.19;99597.06;5063518;27;98660;-76
2023/11/01 09:13:12;;;;;;;2.88;1.10;;;;;;;17.79;50.50;99601.09;5049023;27;96795;-80
2023/11/01 09:15:38;;;;;;;6.13;1.67;;;;;;;17.51;50.32;99566.00;5050169;27;97652;-81
2023/11/01 09:18:04;;;;;;;2.08;1.23;;;;;;;21.05;44.31;99591.28;5039667;27;98036;-76
2023/11/01 09:20:30;;;;;;;0.88;0.70;;;;;;;23.69;39.65;99581.41;5065598;27;98054;-80
2023/11/01 09:22:58;;;;;;;1.35;0.95;;;;;;;25.17;37.48;99588.53;5043941;27;96816;-77
2023/11/01 09:25:25;;;;;;;1.85;0.90;;;;;;;25.35;36.85;99571.44;5068226;27;97453;-80
2023/11/01 09:27:50;;;;;;;1.60;0.93;;;;;;;24.80;36.97;99572.78;5055657;27;101685;-76
2023/11/01 09:30:16;;;;;;;4.07;1.20;;;;;;;23.91;38.07;99561.34;5060944;27;96767;-79
2023/11/01 09:32:42;;;;;;;1.88;1.00;;;;;;;23.40;39.28;99578.13;5045739;27;97142;-76
2023/11/01 09:35:08;;;;;;;1.25;1.10;;;;;;;22.75;39.70;99571.03;5049094;27;97606;-77
2023/11/01 09:37:34;;;;;;;1.00;0.93;;;;;;;22.04;40.54;99578.69;5047205;27;98152;-77
2023/11/01 09:40:00;;;;;;;2.28;0.90;;;;;;;21.54;41.34;99547.66;5064987;27;97334;-77
2023/11/01 09:42:27;;;;;;;2.90;1.45;;;;;;;21.41;42.33;99576.47;5054571;27;96772;-76
2023/11/01 09:44:57;;;;;;;1.35;1.10;;;;;;;21.24;42.58;99580.66;5061597;27;96928;-75
2023/11/01 09:47:26;;;;;;;3.10;1.20;;;;;;;20.82;42.55;99595.97;5067046;27;97531;-77
2023/11/01 09:49:56;;;;;;;2.63;1.05;;;;;;;20.52;42.97;99574.53;5055158;27;99054;-75
2023/11/01 09:52:26;;;;;;;2.83;1.35;;;;;;;20.64;43.23;99577.13;5053850;27;96750;-77
2023/11/01 09:54:52;;;;;;;2.03;1.10;;;;;;;20.05;43.90;99574.13;5046886;27;96925;-76
2023/11/01 09:57:20;;;;;;;1.70;1.20;;;;;;;19.78;43.89;99577.31;5059037;27;98491;-77
2023/11/01 09:59:47;;;;;;;1.45;0.90;;;;;;;19.55;44.37;99555.25;5049178;27;97715;-76
2023/11/01 10:02:12;;;;;;;1.13;0.70;;;;;;;19.69;44.14;99580.72;5058440;27;96805;-76
2023/11/01 10:04:39;;;;;;;1.00;0.80;;;;;;;19.29;44.64;99541.44;5046512;27;96848;-76
2023/11/01 10:07:08;;;;;;;2.25;1.15;;;;;;;19.39;45.32;99563.66;5046253;27;101041;-75
2023/11/01 10:09:35;;;;;;;2.75;1.00;;;;;;;19.15;45.25;99544.41;5073784;27;97578;-78
2023/11/01 10:12:01;;;;;;;5.50;1.23;;;;;;;19.07;45.45;99552.16;5065679;27;97105;-76
2023/11/01 10:14:28;;;;;;;1.67;0.80;;;;;;;19.03;45.71;99551.56;5045431;27;96876;-75
2023/11/01 10:16:58;;;;;;;1.15;0.73;;;;;;;18.90;45.78;99570.31;5065443;27;97813;-75
2023/11/01 10:19:27;;;;;;;4.82;0.90;;;;;;;18.70;46.17;99523.19;5065563;27;97972;-75
2023/11/01 10:21:53;;;;;;;1.15;0.80;;;;;;;18.89;46.01;99536.72;5040893;27;96838;-78
2023/11/01 10:24:20;;;;;;;1.67;1.00;;;;;;;18.92;46.06;99555.09;5048306;27;97376;-75
2023/11/01 10:26:46;;;;;;;3.00;1.10;;;;;;;19.17;45.28;99542.47;5060507;27;97363;-75
2023/11/01 10:29:12;;;;;;;1.48;0.80;;;;;;;19.77;44.46;99558.78;5053257;27;99990;-76
2023/11/01 10:31:37;;;;;;;1.45;1.02;;;;;;;19.97;44.30;99554.44;5037375;27;96831;-75
2023/11/01 10:34:10;;;;;;;2.35;1.15;;;;;;;19.49;43.93;99525.63;5049702;27;96909;-81
2023/11/01 10:36:50;;;;;;;2.05;1.15;;;;;;;19.51;44.19;99555.63;5065094;27;97907;-76
2023/11/01 10:39:17;;;;;;;2.72;1.40;;;;;;;19.66;43.33;99541.91;5046088;27;101279;-74
2023/11/01 10:41:44;;;;;;;1.77;1.00;;;;;;;19.58;44.31;99544.34;5060942;27;97014;-75
2023/11/01 10:44:10;;;;;;;3.38;0.90;;;;;;;19.48;44.33;99532.75;5048691;27;97170;-80
2023/11/01 10:46:35;;;;;;;1.50;0.80;;;;;;;19.26;43.86;99535.50;5043343;27;100909;-79
2023/11/01 10:49:01;;;;;;;2.00;0.80;;;;;;;19.16;44.63;99541.59;5063847;27;97887;-79
2023/11/01 10:51:27;;;;;;;2.42;0.90;;;;;;;18.83;45.44;99492.00;5042348;27;97879;-80
2023/11/01 10:53:53;;;;;;;1.08;0.90;;;;;;;19.14;45.51;99519.63;5057314;27;97303;-80
2023/11/01 10:56:19;;;;;;;0.85;0.68;;;;;;;19.10;44.42;99512.00;5044839;27;101329;-81
2023/11/01 10:58:45;;;;;;;1.33;0.80;;;;;;;18.84;44.82;99492.84;5036031;27;102138;-80
2023/11/01 11:01:22;;;;;;;1.63;0.73;;;;;;;19.03;44.54;99522.31;5047868;27;97211;-80
2023/11/01 11:03:54;;;;;;;0.50;0.50;;;;;;;19.07;45.11;99513.09;5025658;27;96943;-80
2023/11/01 11:06:26;;;;;;;0.98;0.80;;;;;;;19.10;44.57;99522.63;5033068;27;101078;-80
2023/11/01 11:09:23;;;;;;;0.60;0.57;;;;;;;19.07;44.70;99528.22;5048333;27;97743;-79
2023/11/01 11:12:13;;;;;;;1.23;0.80;;;;;;;19.03;45.43;99524.13;5042450;27;97452;-81
2023/11/01 11:14:39;;;;;;;2.70;1.15;;;;;;;19.01;45.84;99513.59;5031898;27;97555;-80
2023/11/01 11:17:09;;;;;;;1.10;0.90;;;;;;;18.99;45.82;99519.06;5052133;27;98472;-81
2023/11/01 11:20:06;;;;;;;2.83;1.10;;;;;;;18.85;45.94;99516.69;5037879;27;101134;-81
2023/11/01 11:23:02;;;;;;;1.58;0.80;;;;;;;18.31;46.69;99515.59;5056269;27;97192;-80
2023/11/01 11:25:37;;;;;;;1.52;1.00;;;;;;;18.18;47.22;99511.38;5043482;27;99430;-80
2023/11/01 11:28:05;;;;;;;1.77;0.93;;;;;;;18.06;46.91;99473.34;5061670;27;101679;-80
2023/11/01 11:31:08;;;;;;;5.78;1.52;;;;;;;18.18;47.18;99506.94;5034672;27;97856;-81
2023/11/01 11:33:49;;;;;;;0.60;0.60;;;;;;;18.10;47.69;99494.22;5045046;27;97723;-77